createdAt,value
2022-10-19T00:02:04.294Z,100449.29
2022-10-19T00:04:30.919Z,100449.68
2022-10-19T00:06:58.007Z,100450.83
2022-10-19T00:09:25.681Z,100458.22
2022-10-19T00:11:57.628Z,100462.70
2022-10-19T00:14:25.102Z,100462.75
2022-10-19T00:17:00.595Z,100458.84
2022-10-19T00:19:28.514Z,100456.11
2022-10-19T00:21:55.428Z,100457.08
2022-10-19T00:24:26.619Z,100453.34
2022-10-19T00:27:08.721Z,100458.05
2022-10-19T00:29:38.615Z,100450.25
2022-10-19T00:32:10.288Z,100449.48
2022-10-19T00:34:44.662Z,100451.64
2022-10-19T00:37:14.313Z,100444.76
2022-10-19T00:39:41.851Z,100448.83
2022-10-19T00:42:17.160Z,100444.82
2022-10-19T00:44:43.526Z,100443.10
2022-10-19T00:47:11.516Z,100442.20
2022-10-19T00:49:45.670Z,100438.91
2022-10-19T00:52:17.525Z,100439.27
2022-10-19T00:54:48.350Z,100436.91
2022-10-19T00:57:20.674Z,100442.69
2022-10-19T00:59:52.585Z,100441.39
2022-10-19T01:02:22.486Z,100441.66
2022-10-19T01:04:53.980Z,100441.48
2022-10-19T01:07:36.030Z,100439.91
2022-10-19T01:10:09.951Z,100440.56
2022-10-19T01:12:59.301Z,100436.00
2022-10-19T01:18:37.080Z,100432.86
2022-10-19T01:21:26.602Z,100430.55
2022-10-19T01:24:26.733Z,100424.16
2022-10-19T01:27:22.568Z,100428.86
2022-10-19T01:33:23.250Z,100434.80
2022-10-19T01:36:11.369Z,100437.36
2022-10-19T01:38:51.684Z,100432.66
2022-10-19T01:41:39.753Z,100426.39
2022-10-19T01:44:49.899Z,100428.02
2022-10-19T01:47:25.301Z,100419.80
2022-10-19T01:50:01.116Z,100421.30
2022-10-19T01:52:32.325Z,100415.95
2022-10-19T01:55:13.119Z,100413.18
2022-10-19T01:57:47.366Z,100409.38
2022-10-19T02:00:16.774Z,100407.38
2022-10-19T02:02:52.996Z,100405.35
2022-10-19T02:05:33.248Z,100407.36
2022-10-19T02:08:10.777Z,100402.55
2022-10-19T02:10:44.470Z,100398.27
2022-10-19T02:13:22.540Z,100399.98
2022-10-19T02:15:58.040Z,100396.40
2022-10-19T02:18:34.196Z,100397.80
2022-10-19T02:21:03.568Z,100398.13
2022-10-19T02:23:33.415Z,100395.54
2022-10-19T02:26:06.025Z,100397.91
2022-10-19T02:28:36.479Z,100390.19
2022-10-19T02:31:03.465Z,100386.84
2022-10-19T02:33:30.912Z,100388.23
2022-10-19T02:36:02.809Z,100384.46
2022-10-19T02:38:29.420Z,100382.91
2022-10-19T02:41:11.275Z,100374.96
2022-10-19T02:43:47.556Z,100365.05
2022-10-19T02:46:32.271Z,100379.48
2022-10-19T02:49:02.995Z,100385.94
2022-10-19T02:51:46.327Z,100382.36
2022-10-19T02:54:12.727Z,100388.41
2022-10-19T02:56:43.288Z,100380.23
2022-10-19T02:59:11.068Z,100382.39
2022-10-19T03:01:48.486Z,100380.01
2022-10-19T03:04:16.316Z,100382.18
2022-10-19T03:06:44.158Z,100378.16
2022-10-19T03:09:10.638Z,100375.98
2022-10-19T03:11:37.044Z,100374.67
2022-10-19T03:14:03.468Z,100369.89
2022-10-19T03:16:29.886Z,100370.92
2022-10-19T03:19:02.882Z,100364.97
2022-10-19T03:21:30.519Z,100363.63
2022-10-19T03:24:00.319Z,100355.80
2022-10-19T03:26:26.925Z,100352.86
2022-10-19T03:28:53.498Z,100357.14
2022-10-19T03:31:22.170Z,100358.81
2022-10-19T03:33:49.761Z,100362.42
2022-10-19T03:36:25.870Z,100361.77
2022-10-19T03:38:58.173Z,100362.04
2022-10-19T03:41:29.180Z,100371.23
2022-10-19T03:44:02.532Z,100374.44
2022-10-19T03:46:31.369Z,100375.88
2022-10-19T03:48:58.309Z,100375.40
2022-10-19T03:51:29.999Z,100378.67
2022-10-19T03:54:09.263Z,100379.20
2022-10-19T03:56:38.296Z,100375.39
2022-10-19T03:59:09.729Z,100383.83
2022-10-19T04:01:40.252Z,100375.89
2022-10-19T04:04:28.319Z,100374.34
2022-10-19T04:06:59.766Z,100375.45
2022-10-19T04:09:26.610Z,100371.25
2022-10-19T04:11:53.402Z,100372.77
2022-10-19T04:14:32.862Z,100382.30
2022-10-19T04:17:09.883Z,100380.02
2022-10-19T04:19:39.687Z,100384.14
2022-10-19T04:22:08.809Z,100377.70
2022-10-19T04:24:35.280Z,100382.36
2022-10-19T04:27:03.172Z,100383.27
2022-10-19T04:29:38.040Z,100382.62
2022-10-19T04:32:07.977Z,100379.62
2022-10-19T04:34:39.895Z,100384.35
2022-10-19T04:37:12.956Z,100375.77
2022-10-19T04:39:42.753Z,100376.28
2022-10-19T04:42:10.219Z,100378.02
2022-10-19T04:47:38.373Z,100364.29
2022-10-19T04:50:05.247Z,100360.40
2022-10-19T04:52:42.115Z,100356.88
2022-10-19T04:55:10.866Z,100353.27
2022-10-19T04:57:37.273Z,100358.54
2022-10-19T05:00:04.451Z,100356.70
2022-10-19T05:02:32.093Z,100353.48
2022-10-19T05:04:59.804Z,100353.20
2022-10-19T05:07:31.055Z,100355.19
2022-10-19T05:09:57.778Z,100356.20
2022-10-19T05:12:24.088Z,100346.90
2022-10-19T05:14:51.171Z,100348.77
2022-10-19T05:17:22.581Z,100345.75
2022-10-19T05:19:48.963Z,100351.32
2022-10-19T05:22:15.344Z,100348.95
2022-10-19T05:24:41.870Z,100353.05
2022-10-19T05:27:08.711Z,100352.65
2022-10-19T05:29:35.150Z,100349.59
2022-10-19T05:32:05.803Z,100356.88
2022-10-19T05:34:32.147Z,100351.58
2022-10-19T05:36:58.484Z,100360.91
2022-10-19T05:39:25.534Z,100370.98
2022-10-19T05:41:51.857Z,100368.45
2022-10-19T05:44:23.004Z,100358.81
2022-10-19T05:46:50.718Z,100371.10
2022-10-19T05:49:19.272Z,100374.77
2022-10-19T05:51:45.628Z,100369.45
2022-10-19T05:54:13.507Z,100368.02
2022-10-19T05:56:48.233Z,100363.86
2022-10-19T05:59:18.061Z,100369.41
2022-10-19T06:01:45.382Z,100373.92
2022-10-19T06:04:14.399Z,100371.15
2022-10-19T06:06:42.328Z,100367.59
2022-10-19T06:09:09.868Z,100373.48
2022-10-19T06:11:38.476Z,100371.21
2022-10-19T06:14:08.483Z,100375.31
2022-10-19T06:16:35.698Z,100380.25
2022-10-19T06:19:03.951Z,100386.33
2022-10-19T06:21:32.438Z,100386.29
2022-10-19T06:24:02.445Z,100392.30
2022-10-19T06:26:30.971Z,100387.45
2022-10-19T06:29:12.765Z,100396.11
2022-10-19T06:31:40.373Z,100394.54
2022-10-19T06:34:07.156Z,100397.41
2022-10-19T06:36:33.663Z,100398.85
2022-10-19T06:39:01.105Z,100402.84
2022-10-19T06:41:29.525Z,100397.67
2022-10-19T06:43:55.947Z,100400.81
2022-10-19T06:46:25.007Z,100403.19
2022-10-19T06:48:53.535Z,100411.79
2022-10-19T06:51:20.660Z,100413.50
2022-10-19T06:53:47.071Z,100418.05
2022-10-19T06:56:13.393Z,100422.52
2022-10-19T06:58:40.090Z,100423.52
2022-10-19T07:01:08.100Z,100423.98
2022-10-19T07:03:36.155Z,100429.98
2022-10-19T07:06:06.362Z,100435.10
2022-10-19T07:08:33.827Z,100430.16
2022-10-19T07:11:02.560Z,100433.65
2022-10-19T07:13:30.884Z,100435.84
2022-10-19T07:15:59.197Z,100438.20
2022-10-19T07:18:26.464Z,100446.77
2022-10-19T07:20:59.248Z,100447.00
2022-10-19T07:23:27.701Z,100451.81
2022-10-19T07:26:02.299Z,100458.08
2022-10-19T07:28:30.189Z,100462.78
2022-10-19T07:30:58.559Z,100461.97
2022-10-19T07:33:25.513Z,100469.21
2022-10-19T07:35:59.158Z,100469.63
2022-10-19T07:38:25.465Z,100477.63
2022-10-19T07:40:58.535Z,100479.77
2022-10-19T07:43:25.598Z,100476.45
2022-10-19T07:46:04.866Z,100482.80
2022-10-19T07:48:31.691Z,100486.73
2022-10-19T07:51:01.907Z,100490.74
2022-10-19T07:53:28.357Z,100495.13
2022-10-19T07:55:55.103Z,100496.39
2022-10-19T07:58:21.454Z,100498.25
2022-10-19T08:00:47.751Z,100501.77
2022-10-19T08:06:34.567Z,100508.16
2022-10-19T08:09:00.948Z,100512.27
2022-10-19T08:11:29.858Z,100513.52
2022-10-19T08:13:58.488Z,100510.96
2022-10-19T08:16:33.105Z,100512.65
2022-10-19T08:19:03.824Z,100516.17
2022-10-19T08:21:31.055Z,100519.51
2022-10-19T08:23:58.374Z,100523.02
2022-10-19T08:26:29.062Z,100523.27
2022-10-19T08:29:03.105Z,100524.79
2022-10-19T08:31:30.440Z,100526.92
2022-10-19T08:33:56.784Z,100528.19
2022-10-19T08:36:23.244Z,100535.52
2022-10-19T08:38:50.068Z,100539.02
2022-10-19T08:41:25.570Z,100536.91
2022-10-19T08:44:21.877Z,100537.56
2022-10-19T08:47:12.329Z,100546.63
2022-10-19T08:49:41.005Z,100546.15
2022-10-19T08:52:15.533Z,100545.39
2022-10-19T08:55:02.051Z,100548.86
2022-10-19T08:57:44.341Z,100548.23
2022-10-19T09:00:17.019Z,100548.11
2022-10-19T09:03:20.100Z,100553.88
2022-10-19T09:06:19.469Z,100555.62
2022-10-19T09:08:47.736Z,100562.42
2022-10-19T09:11:17.399Z,100566.23
2022-10-19T09:14:04.246Z,100565.16
2022-10-19T09:16:32.792Z,100566.61
2022-10-19T09:18:59.268Z,100567.86
2022-10-19T09:21:47.281Z,100577.60
2022-10-19T09:24:29.182Z,100580.38
2022-10-19T09:26:59.797Z,100574.48
2022-10-19T09:29:29.223Z,100580.49
2022-10-19T09:31:59.617Z,100579.21
2022-10-19T09:34:32.111Z,100588.39
2022-10-19T09:36:59.236Z,100584.67
2022-10-19T09:39:29.519Z,100582.39
2022-10-19T09:42:12.544Z,100587.30
2022-10-19T09:44:39.119Z,100581.17
2022-10-19T09:47:13.646Z,100583.30
2022-10-19T09:49:42.993Z,100586.21
2022-10-19T09:52:32.032Z,100586.12
2022-10-19T09:55:05.709Z,100587.74
2022-10-19T09:57:32.658Z,100589.81
2022-10-19T09:59:59.305Z,100596.41
2022-10-19T10:02:31.614Z,100591.53
2022-10-19T10:05:05.884Z,100595.09
2022-10-19T10:07:37.106Z,100599.35
2022-10-19T10:10:29.764Z,100598.35
2022-10-19T10:12:59.058Z,100606.23
2022-10-19T10:15:30.166Z,100609.27
2022-10-19T10:17:57.788Z,100617.55
2022-10-19T10:20:31.517Z,100621.57
2022-10-19T10:23:04.344Z,100625.21
2022-10-19T10:25:33.256Z,100626.41
2022-10-19T10:28:03.277Z,100630.42
2022-10-19T10:30:36.482Z,100632.75
2022-10-19T10:33:27.026Z,100632.33
2022-10-19T10:36:08.178Z,100635.25
2022-10-19T10:38:52.696Z,100636.73
2022-10-19T10:41:28.162Z,100631.34
2022-10-19T10:44:00.928Z,100638.59
2022-10-19T10:46:36.901Z,100641.21
2022-10-19T10:49:16.095Z,100637.89
2022-10-19T10:51:48.143Z,100645.05
2022-10-19T10:54:26.922Z,100648.25
2022-10-19T10:57:13.471Z,100651.11
2022-10-19T10:59:56.020Z,100668.52
2022-10-19T11:02:54.335Z,100669.52
2022-10-19T11:05:52.675Z,100669.94
2022-10-19T11:08:49.954Z,100667.52
2022-10-19T11:11:21.460Z,100669.11
2022-10-19T11:14:19.777Z,100667.24
2022-10-19T11:16:49.600Z,100666.80
2022-10-19T11:19:39.777Z,100669.91
2022-10-19T11:22:24.904Z,100670.25
2022-10-19T11:25:25.322Z,100670.10
2022-10-19T11:27:51.607Z,100669.18
2022-10-19T11:30:20.925Z,100673.71
2022-10-19T11:32:47.151Z,100671.57
2022-10-19T11:35:45.429Z,100667.42
2022-10-19T11:38:36.813Z,100673.64
2022-10-19T11:41:19.361Z,100673.13
2022-10-19T11:44:07.934Z,100675.24
2022-10-19T11:46:47.649Z,100670.38
2022-10-19T11:49:30.532Z,100675.41
2022-10-19T11:52:03.192Z,100678.92
2022-10-19T11:55:00.822Z,100703.92
2022-10-19T11:57:27.071Z,100701.67
2022-10-19T12:00:13.519Z,100694.96
2022-10-19T12:02:50.290Z,100698.78
2022-10-19T12:05:41.015Z,100695.88
2022-10-19T12:08:23.745Z,100699.11
2022-10-19T12:11:06.141Z,100699.21
2022-10-19T12:13:51.846Z,100695.51
2022-10-19T12:16:20.712Z,100696.48
2022-10-19T12:18:53.801Z,100702.80
2022-10-19T12:21:34.400Z,100712.94
2022-10-19T12:24:06.249Z,100707.51
2022-10-19T12:26:36.314Z,100699.45
2022-10-19T12:29:11.422Z,100695.59
2022-10-19T12:31:38.354Z,100694.77
2022-10-19T12:35:00.139Z,100699.98
2022-10-19T12:38:06.510Z,100699.58
2022-10-19T12:41:04.415Z,100696.54
2022-10-19T12:44:02.792Z,100693.16
2022-10-19T12:46:41.516Z,100695.92
2022-10-19T12:49:29.656Z,100695.18
2022-10-19T12:52:00.888Z,100693.21
2022-10-19T12:54:36.212Z,100700.48
2022-10-19T12:57:22.797Z,100704.42
2022-10-19T13:00:18.155Z,100706.66
2022-10-19T13:02:46.955Z,100702.36
2022-10-19T13:05:30.943Z,100705.88
2022-10-19T13:08:01.511Z,100709.98
2022-10-19T13:10:30.505Z,100714.45
2022-10-19T13:12:57.181Z,100717.22
2022-10-19T13:15:39.624Z,100723.91
2022-10-19T13:18:38.309Z,100726.39
2022-10-19T13:21:08.432Z,100724.13
2022-10-19T13:23:38.383Z,100728.43
2022-10-19T13:26:38.657Z,100722.77
2022-10-19T13:29:24.411Z,100727.63
2022-10-19T13:31:50.881Z,100724.20
2022-10-19T13:34:17.192Z,100724.21
2022-10-19T13:37:01.130Z,100732.95
2022-10-19T13:39:28.492Z,100736.04
2022-10-19T13:41:56.725Z,100737.20
2022-10-19T13:44:27.506Z,100745.85
2022-10-19T13:46:59.738Z,100749.02
2022-10-19T13:49:27.867Z,100751.80
2022-10-19T13:52:14.874Z,100753.55
2022-10-19T13:54:59.742Z,100753.53
2022-10-19T13:58:00.425Z,100748.58
2022-10-19T14:00:46.775Z,100753.97
2022-10-19T14:03:18.489Z,100755.29
2022-10-19T14:05:55.221Z,100757.31
2022-10-19T14:08:43.821Z,100761.11
2022-10-19T14:11:30.332Z,100758.31
2022-10-19T14:14:14.622Z,100755.14
2022-10-19T14:16:47.313Z,100763.55
2022-10-19T14:19:26.078Z,100769.59
2022-10-19T14:22:35.978Z,100770.11
2022-10-19T14:25:07.100Z,100776.03
2022-10-19T14:27:34.812Z,100774.96
2022-10-19T14:30:02.476Z,100775.40
2022-10-19T14:32:29.642Z,100779.58
2022-10-19T14:37:30.095Z,100786.92
2022-10-19T14:40:17.286Z,100787.48
2022-10-19T14:42:45.651Z,100788.14
2022-10-19T14:45:19.265Z,100792.14
2022-10-19T14:47:57.441Z,100794.13
2022-10-19T14:50:46.720Z,100795.26
2022-10-19T14:53:45.104Z,100799.08
2022-10-19T14:56:17.343Z,100799.33
2022-10-19T14:58:52.333Z,100797.23
2022-10-19T15:01:19.707Z,100799.77
2022-10-19T15:03:47.975Z,100801.05
2022-10-19T15:06:41.657Z,100802.81
2022-10-19T15:09:36.820Z,100806.03
2022-10-19T15:12:08.655Z,100815.95
2022-10-19T15:14:37.385Z,100812.52
2022-10-19T15:17:20.972Z,100816.55
2022-10-19T15:19:47.669Z,100816.15
2022-10-19T15:22:19.279Z,100820.24
2022-10-19T15:25:12.288Z,100826.25
2022-10-19T15:27:41.238Z,100827.75
2022-10-19T15:30:25.147Z,100829.29
2022-10-19T15:33:17.833Z,100826.86
2022-10-19T15:35:44.344Z,100828.69
2022-10-19T15:38:22.411Z,100832.34
2022-10-19T15:40:55.070Z,100834.66
2022-10-19T15:43:24.329Z,100838.04
2022-10-19T15:46:19.675Z,100837.35
2022-10-19T15:48:51.188Z,100842.69
2022-10-19T15:51:26.252Z,100846.02
2022-10-19T15:53:59.058Z,100850.51
2022-10-19T15:56:27.861Z,100852.05
2022-10-19T15:58:56.868Z,100860.02
2022-10-19T16:01:28.951Z,100861.38
2022-10-19T16:03:56.822Z,100861.64
2022-10-19T16:06:26.791Z,100865.52
2022-10-19T16:08:53.287Z,100870.58
2022-10-19T16:11:25.145Z,100871.28
2022-10-19T16:13:51.503Z,100873.98
2022-10-19T16:16:33.967Z,100874.92
2022-10-19T16:19:01.034Z,100879.74
2022-10-19T16:21:31.295Z,100885.17
2022-10-19T16:23:57.941Z,100889.52
2022-10-19T16:26:25.618Z,100894.55
2022-10-19T16:28:53.296Z,100892.06
2022-10-19T16:31:20.044Z,100893.14
2022-10-19T16:33:46.349Z,100896.16
2022-10-19T16:36:13.122Z,100892.80
2022-10-19T16:38:39.717Z,100895.95
2022-10-19T16:41:08.416Z,100901.48
2022-10-19T16:43:35.317Z,100902.42
2022-10-19T16:46:02.041Z,100900.88
2022-10-19T16:48:28.451Z,100901.93
2022-10-19T16:51:28.129Z,100902.61
2022-10-19T17:34:41.508Z,100944.63
2022-10-19T17:53:39.539Z,100967.87
2022-10-19T18:04:19.930Z,100975.48
2022-10-19T18:22:02.793Z,100994.20
2022-10-19T18:54:43.491Z,101009.52
2022-10-19T18:57:09.773Z,101005.02
2022-10-19T18:59:36.122Z,101007.95
2022-10-19T19:02:02.504Z,101004.41
2022-10-19T19:04:28.928Z,101006.96
2022-10-19T19:06:55.136Z,101007.89
2022-10-19T19:09:21.446Z,101012.60
2022-10-19T19:11:47.769Z,101014.05
2022-10-19T19:14:17.092Z,101014.80
2022-10-19T19:16:44.641Z,101015.45
2022-10-19T19:19:13.058Z,101019.40
2022-10-19T19:21:42.998Z,101024.34
2022-10-19T19:24:13.583Z,101032.16
2022-10-19T19:26:42.837Z,101037.85
2022-10-19T19:29:09.093Z,101033.81
2022-10-19T19:31:35.495Z,101034.17
2022-10-19T19:34:02.573Z,101033.40
2022-10-19T19:36:29.170Z,101035.02
2022-10-19T19:38:56.620Z,101039.81
2022-10-19T19:41:22.906Z,101042.48
2022-10-19T19:43:49.207Z,101040.27
2022-10-19T19:46:17.784Z,101038.46
2022-10-19T19:48:46.385Z,101040.09
2022-10-19T19:51:15.334Z,101040.21
2022-10-19T19:53:42.857Z,101041.39
2022-10-19T19:56:11.462Z,101050.02
2022-10-19T19:58:40.000Z,101051.28
2022-10-19T20:01:18.288Z,101059.15
2022-10-19T20:03:45.719Z,101064.54
2022-10-19T20:06:14.445Z,101066.83
2022-10-19T20:08:40.947Z,101066.75
2022-10-19T20:11:10.658Z,101071.28
2022-10-19T20:13:37.882Z,101072.31
2022-10-19T20:16:13.327Z,101072.31
2022-10-19T20:18:43.223Z,101070.30
2022-10-19T20:21:09.463Z,101079.55
2022-10-19T20:23:35.939Z,101085.95
2022-10-19T20:26:02.167Z,101093.00
2022-10-19T20:28:31.507Z,101095.05
2022-10-19T20:31:02.417Z,101088.61
2022-10-19T20:33:33.486Z,101091.09
2022-10-19T20:36:26.216Z,101095.25
2022-10-19T20:38:57.213Z,101096.23
2022-10-19T20:41:25.994Z,101100.57
2022-10-19T20:43:53.687Z,101097.28
2022-10-19T20:46:22.732Z,101097.18
2022-10-19T20:48:49.872Z,101100.23
2022-10-19T20:51:19.664Z,101097.95
2022-10-19T20:53:48.339Z,101094.96
2022-10-19T20:56:22.955Z,101096.33
2022-10-19T20:58:57.500Z,101093.61
2022-10-19T21:01:24.247Z,101097.73
2022-10-19T21:03:56.684Z,101095.60
2022-10-19T21:06:25.617Z,101098.27
2022-10-19T21:08:52.511Z,101100.54
2022-10-19T21:11:22.191Z,101099.77
2022-10-19T21:13:52.728Z,101100.14
2022-10-19T21:16:21.904Z,101105.35
2022-10-19T21:18:49.842Z,101103.87
2022-10-19T21:21:20.701Z,101102.46
2022-10-19T21:23:49.489Z,101098.80
2022-10-19T21:26:16.741Z,101101.29
2022-10-19T21:28:47.945Z,101098.80
2022-10-19T21:31:15.884Z,101094.41
2022-10-19T21:33:42.365Z,101088.66
2022-10-19T21:36:10.163Z,101094.70
2022-10-19T21:38:36.865Z,101095.17
2022-10-19T21:41:05.945Z,101094.86
2022-10-19T21:43:33.195Z,101091.77
2022-10-19T21:46:10.306Z,101091.58
2022-10-19T21:48:36.969Z,101094.81
2022-10-19T21:51:22.166Z,101095.05
2022-10-19T21:53:48.531Z,101094.62
2022-10-19T21:56:15.553Z,101094.89
2022-10-19T21:58:46.401Z,101097.41
2022-10-19T22:01:13.678Z,101094.57
2022-10-19T22:03:40.962Z,101091.49
2022-10-19T22:06:07.605Z,101093.55
2022-10-19T22:08:34.795Z,101087.23
2022-10-19T22:11:09.505Z,101093.63
2022-10-19T22:13:36.415Z,101094.92
2022-10-19T22:16:08.428Z,101088.35
2022-10-19T22:18:35.171Z,101089.83
2022-10-19T22:21:08.019Z,101094.30
2022-10-19T22:23:34.713Z,101100.11
2022-10-19T22:26:00.961Z,101101.34
2022-10-19T22:28:27.896Z,101106.48
2022-10-19T22:30:56.401Z,101111.45
2022-10-19T22:33:24.489Z,101113.73
2022-10-19T22:35:59.782Z,101112.92
2022-10-19T22:38:28.009Z,101113.31
2022-10-19T22:40:54.342Z,101116.28
2022-10-19T22:43:20.680Z,101114.08
2022-10-19T22:45:50.541Z,101114.09
2022-10-19T22:48:17.917Z,101116.67
2022-10-19T22:50:45.495Z,101115.86
2022-10-19T22:53:12.341Z,101115.25
2022-10-19T22:55:39.177Z,101109.98
2022-10-19T22:58:07.733Z,101108.84
2022-10-19T23:00:34.085Z,101105.81
2022-10-19T23:03:00.384Z,101103.05
2022-10-19T23:05:27.559Z,101100.10
2022-10-19T23:07:53.896Z,101106.86
2022-10-19T23:10:20.249Z,101113.83
2022-10-19T23:12:51.715Z,101117.74
2022-10-19T23:15:19.684Z,101119.70
2022-10-19T23:17:46.619Z,101122.39
2022-10-19T23:20:13.256Z,101130.39
2022-10-19T23:22:40.086Z,101135.03
2022-10-19T23:25:07.736Z,101137.73
2022-10-19T23:27:34.417Z,101140.13
2022-10-19T23:30:02.128Z,101138.65
2022-10-19T23:32:28.463Z,101142.44
2022-10-19T23:34:54.772Z,101144.89
2022-10-19T23:37:21.136Z,101146.79
2022-10-19T23:39:47.412Z,101146.08
2022-10-19T23:42:13.674Z,101151.25
2022-10-19T23:44:39.959Z,101151.17
2022-10-19T23:47:06.265Z,101150.50
2022-10-19T23:49:32.708Z,101148.75
2022-10-19T23:51:58.949Z,101157.52
2022-10-19T23:54:25.343Z,101158.77
2022-10-19T23:56:51.626Z,101165.77
2022-10-19T23:59:17.907Z,101168.19
